Time;durP1;ratioP1;P1;durP2;ratioP2;P2;SDS_P1;SDS_P2;PMS_P1;PMS_P2;Temp;Humidity;BMP_temperature;BMP_pressure;BME280_temperature;BME280_humidity;BME280_pressure;Samples;Min_cycle;Max_cycle;Signal;HPM_P1;HPM_P2
2023/10/30 00:00:29;;;;;;;7.30;1.70;;;;;;;9.56;100.00;99645.00;5065206;28;20104;-62
2023/10/30 00:02:54;;;;;;;11.02;2.00;;;;;;;9.55;100.00;99644.97;5068585;28;20644;-62
2023/10/30 00:05:19;;;;;;;14.43;2.30;;;;;;;9.57;100.00;99646.72;5063786;28;20489;-62
2023/10/30 00:07:45;;;;;;;9.18;2.08;;;;;;;9.57;100.00;99645.88;5049844;28;20100;-62
2023/10/30 00:10:10;;;;;;;5.75;2.00;;;;;;;9.56;100.00;99657.03;5050319;28;20103;-61
2023/10/30 00:12:35;;;;;;;5.95;1.90;;;;;;;9.56;100.00;99655.34;5048933;28;20029;-62
2023/10/30 00:15:03;;;;;;;10.50;1.60;;;;;;;9.58;100.00;99657.94;5061993;28;20074;-62
2023/10/30 00:17:30;;;;;;;9.27;1.98;;;;;;;9.57;100.00;99667.41;5064675;28;20024;-62
2023/10/30 00:19:55;;;;;;;9.95;2.08;;;;;;;9.57;100.00;99674.31;5049766;28;20025;-61
2023/10/30 00:22:21;;;;;;;5.38;1.77;;;;;;;9.55;100.00;99669.09;5059738;28;20025;-62
2023/10/30 00:24:46;;;;;;;11.95;2.30;;;;;;;9.56;100.00;99678.63;5068012;28;20418;-62
2023/10/30 00:27:12;;;;;;;9.80;2.35;;;;;;;9.53;100.00;99681.16;5064521;28;20036;-61
2023/10/30 00:29:40;;;;;;;8.93;1.50;;;;;;;9.53;100.00;99691.50;5048050;28;20020;-62
2023/10/30 00:32:07;;;;;;;10.73;1.95;;;;;;;9.53;100.00;99694.09;5048247;28;20096;-61
2023/10/30 00:34:33;;;;;;;7.97;1.92;;;;;;;9.56;100.00;99698.41;5047990;28;20045;-61
2023/10/30 00:36:58;;;;;;;11.70;2.15;;;;;;;9.56;100.00;99694.13;5058348;28;20033;-62
2023/10/30 00:39:23;;;;;;;9.43;2.20;;;;;;;9.54;100.00;99701.00;5077515;28;20013;-61
2023/10/30 00:41:48;;;;;;;8.75;1.98;;;;;;;9.54;100.00;99707.88;5047826;28;20283;-61
2023/10/30 00:44:14;;;;;;;9.35;1.90;;;;;;;9.54;100.00;99713.91;5047499;28;20110;-62
2023/10/30 00:46:39;;;;;;;7.68;1.75;;;;;;;9.51;100.00;99713.88;5068331;28;20487;-61
2023/10/30 00:49:04;;;;;;;10.07;1.98;;;;;;;9.49;100.00;99715.56;5080109;28;20017;-61
2023/10/30 00:51:29;;;;;;;8.95;1.58;;;;;;;9.47;100.00;99714.66;5047132;28;20033;-61
2023/10/30 00:53:55;;;;;;;8.20;1.77;;;;;;;9.47;100.00;99718.13;5047463;28;20074;-62
2023/10/30 00:56:21;;;;;;;7.15;1.55;;;;;;;9.49;100.00;99723.31;5068284;28;20039;-63
2023/10/30 00:58:46;;;;;;;7.72;2.17;;;;;;;9.49;100.00;99725.91;5086120;28;20020;-63
2023/10/30 01:01:13;;;;;;;9.43;1.85;;;;;;;9.51;100.00;99734.56;5076871;28;20500;-62
2023/10/30 01:03:38;;;;;;;6.68;1.70;;;;;;;9.53;100.00;99740.63;5063086;28;20028;-62
2023/10/30 01:06:04;;;;;;;9.88;2.60;;;;;;;9.54;100.00;99744.97;5069238;28;20021;-62
2023/10/30 01:08:29;;;;;;;6.50;2.05;;;;;;;9.55;100.00;99740.66;5056218;28;20028;-62
2023/10/30 01:10:58;;;;;;;5.70;1.75;;;;;;;9.56;100.00;99743.28;5056025;28;20094;-62
2023/10/30 01:13:25;;;;;;;9.63;2.10;;;;;;;9.56;100.00;99748.44;5070302;28;20035;-62
2023/10/30 01:15:53;;;;;;;8.45;2.05;;;;;;;9.58;100.00;99743.28;5089303;28;20036;-62
2023/10/30 01:18:18;;;;;;;10.18;1.83;;;;;;;9.59;100.00;99756.25;5084607;28;20028;-61
2023/10/30 01:20:44;;;;;;;6.88;2.28;;;;;;;9.63;100.00;99758.88;5070835;28;20029;-62
2023/10/30 01:23:09;;;;;;;11.93;2.20;;;;;;;9.65;100.00;99752.03;5072542;28;20052;-61
2023/10/30 01:25:35;;;;;;;9.40;1.88;;;;;;;9.66;100.00;99754.66;5050776;28;20108;-61
2023/10/30 01:28:00;;;;;;;10.02;2.08;;;;;;;9.68;100.00;99757.25;5051163;28;20041;-62
2023/10/30 01:30:26;;;;;;;10.55;2.50;;;;;;;9.68;100.00;99754.66;5063963;28;20184;-62
2023/10/30 01:32:51;;;;;;;11.55;2.17;;;;;;;9.69;100.00;99749.56;5070336;28;20414;-62
2023/10/30 01:35:16;;;;;;;11.75;2.35;;;;;;;9.71;100.00;99747.00;5090616;28;20019;-61
2023/10/30 01:37:42;;;;;;;6.47;1.80;;;;;;;9.71;100.00;99744.41;5074860;28;20479;-62
2023/10/30 01:40:09;;;;;;;7.22;1.60;;;;;;;9.71;100.00;99741.81;5061173;28;20036;-61
2023/10/30 01:42:34;;;;;;;9.18;2.10;;;;;;;9.70;100.00;99745.22;5056491;28;20045;-62
2023/10/30 01:45:00;;;;;;;9.50;2.35;;;;;;;9.71;100.00;99747.84;5051360;28;20037;-62
2023/10/30 01:47:26;;;;;;;9.38;2.00;;;;;;;9.73;100.00;99750.47;5051226;28;20032;-61
2023/10/30 01:49:55;;;;;;;7.75;1.90;;;;;;;9.72;100.00;99743.53;5051126;28;20029;-61
2023/10/30 01:52:21;;;;;;;7.20;1.50;;;;;;;9.73;100.00;99751.31;5050530;28;20484;-62
2023/10/30 01:54:49;;;;;;;8.77;1.80;;;;;;;9.72;100.00;99749.59;5051445;28;20025;-62
2023/10/30 01:57:17;;;;;;;10.40;2.13;;;;;;;9.72;100.00;99754.78;5086153;28;20131;-61
2023/10/30 01:59:43;;;;;;;6.97;1.83;;;;;;;9.72;100.00;99754.78;5090151;28;20034;-61
2023/10/30 02:02:08;;;;;;;5.22;1.40;;;;;;;9.72;100.00;99759.94;5089976;28;20467;-61
2023/10/30 02:04:35;;;;;;;10.00;1.70;;;;;;;9.73;100.00;99764.25;5091106;28;20024;-62
2023/10/30 02:07:02;;;;;;;11.63;1.80;;;;;;;9.75;100.00;99764.28;5089370;28;20502;-63
2023/10/30 02:09:28;;;;;;;7.88;1.63;;;;;;;9.78;100.00;99766.97;5082419;28;20028;-62
2023/10/30 02:11:55;;;;;;;6.47;2.13;;;;;;;9.80;100.00;99762.69;5081095;28;20042;-62
2023/10/30 02:14:20;;;;;;;8.35;1.90;;;;;;;9.80;100.00;99762.69;5081839;28;20028;-62
2023/10/30 02:16:45;;;;;;;7.63;2.10;;;;;;;9.79;100.00;99766.09;5090542;28;20035;-62
2023/10/30 02:19:16;;;;;;;6.22;1.83;;;;;;;9.79;100.00;99760.91;5078553;28;20396;-61
2023/10/30 02:21:41;;;;;;;10.57;1.90;;;;;;;9.78;100.00;99759.19;5071816;28;20364;-61
2023/10/30 02:24:08;;;;;;;9.25;2.08;;;;;;;9.77;100.00;99757.44;5062711;28;20019;-61
2023/10/30 02:26:33;;;;;;;8.02;1.90;;;;;;;9.75;100.00;99756.53;5089120;28;20039;-61
2023/10/30 02:29:01;;;;;;;7.88;1.95;;;;;;;9.76;100.00;99760.88;5088804;28;20028;-62
2023/10/30 02:31:27;;;;;;;9.18;1.73;;;;;;;9.76;100.00;99760.88;5075715;28;20017;-61
2023/10/30 02:33:52;;;;;;;8.48;1.75;;;;;;;9.75;100.00;99764.28;5063536;28;20499;-61
2023/10/30 02:36:17;;;;;;;9.27;1.77;;;;;;;9.73;100.00;99759.09;5050554;28;20063;-61
2023/10/30 02:38:43;;;;;;;7.00;1.80;;;;;;;9.76;100.00;99760.88;5064280;28;20081;-62
2023/10/30 02:41:08;;;;;;;10.27;1.50;;;;;;;9.75;100.00;99747.91;5089625;28;20258;-61
2023/10/30 02:43:33;;;;;;;11.43;1.98;;;;;;;9.74;100.00;99747.03;5075322;28;20062;-62
2023/10/30 02:46:00;;;;;;;9.32;1.85;;;;;;;9.75;100.00;99748.75;5056325;28;20548;-62
2023/10/30 02:48:26;;;;;;;7.95;2.08;;;;;;;9.76;100.00;99747.94;5076675;28;20136;-61
2023/10/30 02:50:51;;;;;;;9.85;1.77;;;;;;;9.75;100.00;99743.59;5048425;28;20695;-62
2023/10/30 02:53:16;;;;;;;6.88;1.70;;;;;;;9.76;100.00;99745.34;5062812;28;20023;-61
2023/10/30 02:55:43;;;;;;;8.43;2.00;;;;;;;9.75;100.00;99742.75;5062333;28;20472;-63
2023/10/30 02:58:08;;;;;;;4.55;1.50;;;;;;;9.73;100.00;99751.31;5050189;28;20083;-61
2023/10/30 03:00:33;;;;;;;7.55;1.42;;;;;;;9.74;100.00;99752.22;5076465;28;20035;-62
2023/10/30 03:02:59;;;;;;;6.72;1.88;;;;;;;9.76;100.00;99745.34;5089502;28;20024;-62
2023/10/30 03:05:24;;;;;;;8.43;1.80;;;;;;;9.76;100.00;99745.34;5088645;28;20023;-61
2023/10/30 03:07:49;;;;;;;5.03;1.60;;;;;;;9.76;100.00;99747.94;5089097;28;20438;-62
2023/10/30 03:10:15;;;;;;;9.93;1.73;;;;;;;9.77;100.00;99741.91;5088620;28;20035;-61
2023/10/30 03:12:40;;;;;;;7.80;1.48;;;;;;;9.77;100.00;99748.81;5081889;28;20025;-61
2023/10/30 03:15:06;;;;;;;11.20;2.35;;;;;;;9.75;100.00;99741.00;5082023;28;20024;-61
2023/10/30 03:17:31;;;;;;;4.90;1.35;;;;;;;9.76;100.00;99747.94;5088392;28;20055;-61
2023/10/30 03:19:57;;;;;;;7.65;1.63;;;;;;;9.77;100.00;99754.00;5087532;28;20038;-62
2023/10/30 03:22:23;;;;;;;6.80;1.85;;;;;;;9.78;100.00;99763.47;5085558;28;20030;-61
2023/10/30 03:24:48;;;;;;;10.02;1.40;;;;;;;9.77;100.00;99761.75;5078026;28;20150;-62
2023/10/30 03:27:14;;;;;;;7.50;1.90;;;;;;;9.76;100.00;99763.47;5086329;28;20361;-62
2023/10/30 03:29:40;;;;;;;7.40;2.35;;;;;;;9.78;100.00;99766.97;5068564;28;20063;-62
2023/10/30 03:32:05;;;;;;;9.40;1.73;;;;;;;9.78;100.00;99766.06;5082131;28;20119;-62
2023/10/30 03:34:30;;;;;;;12.80;1.98;;;;;;;9.77;100.00;99761.75;5058952;28;20088;-61
2023/10/30 03:36:56;;;;;;;5.93;1.40;;;;;;;9.75;100.00;99764.28;5081492;28;20055;-63
2023/10/30 03:39:21;;;;;;;8.65;1.73;;;;;;;9.73;100.00;99766.00;5088737;28;20016;-61
2023/10/30 03:41:46;;;;;;;11.95;2.15;;;;;;;9.72;100.00;99761.66;5087791;28;20048;-62
2023/10/30 03:44:12;;;;;;;8.82;1.88;;;;;;;9.73;100.00;99760.81;5088273;28;20024;-62
2023/10/30 03:46:37;;;;;;;11.68;1.80;;;;;;;9.72;100.00;99759.06;5087680;28;20076;-62
2023/10/30 03:49:02;;;;;;;5.72;1.63;;;;;;;9.73;100.00;99760.81;5088179;28;20024;-62
2023/10/30 03:51:28;;;;;;;9.30;1.60;;;;;;;9.71;100.00;99768.53;5087561;28;20077;-61
2023/10/30 03:53:53;;;;;;;9.23;1.70;;;;;;;9.72;100.00;99764.25;5088433;28;20064;-61
2023/10/30 03:56:18;;;;;;;8.52;1.50;;;;;;;9.70;100.00;99758.16;5088210;28;20451;-62
2023/10/30 03:58:43;;;;;;;6.88;1.83;;;;;;;9.69;100.00;99759.91;5088344;28;20114;-62
2023/10/30 04:01:09;;;;;;;7.93;1.52;;;;;;;9.68;100.00;99767.59;5080246;28;20380;-61
2023/10/30 04:03:34;;;;;;;6.78;1.70;;;;;;;9.66;100.00;99769.31;5058751;28;20028;-61
2023/10/30 04:06:03;;;;;;;8.05;1.70;;;;;;;9.64;100.00;99768.41;5051024;28;20282;-62
2023/10/30 04:08:29;;;;;;;11.90;1.95;;;;;;;9.63;100.00;99757.19;5059326;28;20029;-61
2023/10/30 04:10:54;;;;;;;9.35;1.63;;;;;;;9.62;100.00;99763.22;5050111;28;20021;-62
2023/10/30 04:13:19;;;;;;;9.48;1.90;;;;;;;9.61;100.00;99759.75;5048555;28;20074;-61
2023/10/30 04:15:46;;;;;;;5.68;1.20;;;;;;;9.60;100.00;99758.00;5047252;28;20029;-62
2023/10/30 04:18:11;;;;;;;7.85;1.52;;;;;;;9.59;100.00;99757.97;5047913;28;20120;-62
2023/10/30 04:20:38;;;;;;;7.60;1.88;;;;;;;9.57;100.00;99757.94;5071047;28;20095;-62
2023/10/30 04:23:03;;;;;;;7.32;1.48;;;;;;;9.55;100.00;99759.63;5075089;28;20395;-62
2023/10/30 04:25:29;;;;;;;6.50;1.30;;;;;;;9.54;100.00;99754.41;5052691;28;20028;-61
2023/10/30 04:27:54;;;;;;;8.02;1.30;;;;;;;9.52;100.00;99746.63;5048333;28;20106;-62
2023/10/30 04:30:19;;;;;;;6.53;1.80;;;;;;;9.51;100.00;99757.84;5051484;28;20036;-62
2023/10/30 04:32:45;;;;;;;7.07;1.50;;;;;;;9.51;100.00;99762.13;5088317;28;20023;-61
2023/10/30 04:35:10;;;;;;;5.45;1.38;;;;;;;9.50;100.00;99769.00;5060120;28;20041;-62
2023/10/30 04:37:35;;;;;;;9.32;1.77;;;;;;;9.49;100.00;99762.09;5087954;28;20023;-62
2023/10/30 04:40:01;;;;;;;12.30;1.83;;;;;;;9.47;100.00;99767.25;5082752;28;20103;-62
2023/10/30 04:42:27;;;;;;;7.55;2.08;;;;;;;9.47;100.00;99768.94;5065479;28;20052;-61
2023/10/30 04:44:52;;;;;;;8.95;1.77;;;;;;;9.47;100.00;99768.94;5086743;28;20034;-62
2023/10/30 04:47:20;;;;;;;7.22;1.45;;;;;;;9.45;100.00;99765.47;5087168;28;20024;-61
2023/10/30 04:49:45;;;;;;;6.40;1.52;;;;;;;9.43;100.00;99761.97;5086281;28;20035;-61
2023/10/30 04:52:11;;;;;;;11.25;1.73;;;;;;;9.41;100.00;99768.84;5087068;28;20040;-61
2023/10/30 04:54:36;;;;;;;7.88;1.70;;;;;;;9.37;100.00;99762.75;5085460;28;20059;-61
2023/10/30 04:57:01;;;;;;;6.70;1.70;;;;;;;9.35;100.00;99764.41;5077292;28;20040;-61
2023/10/30 04:59:27;;;;;;;8.73;1.70;;;;;;;9.32;100.00;99767.81;5069689;28;20024;-61
2023/10/30 05:01:52;;;;;;;7.25;1.45;;;;;;;9.29;100.00;99757.41;5066725;28;20048;-62
2023/10/30 05:04:18;;;;;;;9.45;1.95;;;;;;;9.30;100.00;99756.56;5066348;28;20080;-62
2023/10/30 05:06:45;;;;;;;11.77;2.22;;;;;;;9.28;100.00;99758.25;5057616;28;20028;-62
2023/10/30 05:09:10;;;;;;;10.52;2.10;;;;;;;9.28;100.00;99759.97;5076236;28;20396;-62
2023/10/30 05:11:39;;;;;;;7.93;1.95;;;;;;;9.27;100.00;99753.91;5047756;28;20029;-61
2023/10/30 05:14:05;;;;;;;8.05;2.00;;;;;;;9.25;100.00;99747.84;5047643;28;20017;-61
2023/10/30 05:16:30;;;;;;;5.40;1.65;;;;;;;9.25;100.00;99753.00;5059284;28;20462;-61
2023/10/30 05:18:55;;;;;;;9.60;2.20;;;;;;;9.24;100.00;99759.03;5053881;28;20020;-62
2023/10/30 05:21:21;;;;;;;11.00;1.77;;;;;;;9.25;100.00;99760.75;5075641;28;20429;-63
2023/10/30 05:23:46;;;;;;;9.50;1.45;;;;;;;9.25;100.00;99761.66;5072412;28;20020;-62
2023/10/30 05:26:11;;;;;;;6.43;1.17;;;;;;;9.23;100.00;99767.63;5074790;28;20028;-62
2023/10/30 05:28:37;;;;;;;10.93;1.63;;;;;;;9.24;100.00;99761.63;5085851;28;20480;-62
2023/10/30 05:31:05;;;;;;;9.35;1.85;;;;;;;9.22;100.00;99758.13;5086797;28;20032;-61
2023/10/30 05:33:31;;;;;;;4.95;2.10;;;;;;;9.22;100.00;99753.84;5086696;28;20024;-62
2023/10/30 05:35:56;;;;;;;7.18;1.80;;;;;;;9.20;100.00;99749.47;5087472;28;20443;-61
2023/10/30 05:38:22;;;;;;;8.30;2.22;;;;;;;9.19;100.00;99743.41;5086735;28;20024;-62
2023/10/30 05:40:47;;;;;;;9.75;1.88;;;;;;;9.18;100.00;99738.22;5086748;28;20040;-61
2023/10/30 05:43:13;;;;;;;8.02;1.33;;;;;;;9.16;100.00;99740.78;5086211;28;20043;-61
2023/10/30 05:45:39;;;;;;;10.85;2.70;;;;;;;9.17;100.00;99749.41;5087511;28;20024;-62
2023/10/30 05:48:04;;;;;;;7.53;1.48;;;;;;;9.15;100.00;99745.91;5086842;28;20020;-61
2023/10/30 05:50:30;;;;;;;9.10;2.22;;;;;;;9.14;100.00;99739.88;5087192;28;20028;-61
2023/10/30 05:52:55;;;;;;;7.80;1.33;;;;;;;9.12;100.00;99745.00;5086464;28;20538;-61
2023/10/30 05:55:20;;;;;;;9.77;1.98;;;;;;;9.11;100.00;99744.97;5086853;28;20032;-62
2023/10/30 05:57:46;;;;;;;11.80;1.75;;;;;;;9.10;100.00;99743.25;5085886;28;20020;-62
2023/10/30 06:00:12;;;;;;;11.70;1.67;;;;;;;9.09;100.00;99737.19;5084261;28;20079;-62
2023/10/30 06:02:38;;;;;;;11.55;2.10;;;;;;;9.07;100.00;99738.88;5076525;28;20031;-62
2023/10/30 06:05:06;;;;;;;9.48;1.73;;;;;;;9.07;100.00;99740.59;5078578;28;20027;-61
2023/10/30 06:07:31;;;;;;;6.70;2.90;;;;;;;9.05;100.00;99745.72;5075109;28;20081;-62
2023/10/30 06:09:57;;;;;;;15.18;2.45;;;;;;;9.05;100.00;99734.53;5083151;28;20414;-61
2023/10/30 06:12:22;;;;;;;6.78;1.63;;;;;;;9.01;100.00;99734.44;5067534;28;20027;-62
2023/10/30 06:14:48;;;;;;;8.15;1.77;;;;;;;9.02;100.00;99735.31;5082405;28;20020;-61
2023/10/30 06:17:13;;;;;;;10.52;2.22;;;;;;;9.01;100.00;99744.78;5080746;28;20483;-61
2023/10/30 06:19:40;;;;;;;10.63;1.77;;;;;;;9.00;100.00;99731.84;5074966;28;20020;-62
2023/10/30 06:22:06;;;;;;;6.45;1.90;;;;;;;8.99;100.00;99740.44;5081716;28;20411;-62
2023/10/30 06:24:31;;;;;;;11.32;1.55;;;;;;;8.99;100.00;99755.94;5068637;28;20020;-61
2023/10/30 06:26:56;;;;;;;9.43;2.13;;;;;;;8.99;100.00;99763.69;5054391;28;20059;-62
2023/10/30 06:29:21;;;;;;;7.65;1.73;;;;;;;9.00;100.00;99757.69;5068378;28;20070;-62
2023/10/30 06:31:47;;;;;;;11.93;2.53;;;;;;;8.99;100.00;99767.13;5076651;28;20032;-63
2023/10/30 06:34:13;;;;;;;8.85;1.83;;;;;;;9.00;100.00;99768.91;5069125;28;20558;-62
2023/10/30 06:36:38;;;;;;;12.48;1.85;;;;;;;8.99;100.00;99769.72;5047988;28;20056;-62
2023/10/30 06:39:04;;;;;;;8.27;1.80;;;;;;;8.98;100.00;99770.56;5067795;28;20051;-63
2023/10/30 06:41:29;;;;;;;10.10;1.77;;;;;;;9.00;100.00;99778.34;5061961;28;20045;-62
2023/10/30 06:43:56;;;;;;;8.57;1.70;;;;;;;9.00;100.00;99786.09;5074072;28;20169;-62
2023/10/30 06:46:21;;;;;;;10.02;1.80;;;;;;;8.99;100.00;99786.97;5080973;28;20420;-62
2023/10/30 06:48:46;;;;;;;11.13;2.00;;;;;;;8.97;100.00;99796.38;5065895;28;20032;-61
2023/10/30 06:51:12;;;;;;;7.43;1.38;;;;;;;8.97;100.00;99791.22;5066324;28;20049;-62
2023/10/30 06:53:37;;;;;;;8.13;1.58;;;;;;;8.98;100.00;99800.69;5057587;28;20025;-62
2023/10/30 06:56:03;;;;;;;8.02;1.55;;;;;;;8.99;100.00;99799.88;5050787;28;20202;-62
2023/10/30 06:58:28;;;;;;;12.32;2.15;;;;;;;8.99;100.00;99803.31;5067433;28;20495;-62
2023/10/30 07:01:02;;;;;;;13.57;2.10;;;;;;;8.98;100.00;99806.75;5067264;28;20073;-61
2023/10/30 07:03:27;;;;;;;12.85;2.45;;;;;;;8.99;100.00;99802.47;5074443;28;20418;-61
2023/10/30 07:05:52;;;;;;;9.55;1.77;;;;;;;9.00;100.00;99804.19;5079317;28;20020;-61
2023/10/30 07:08:17;;;;;;;8.60;1.80;;;;;;;8.99;100.00;99802.47;5084683;28;20391;-62
2023/10/30 07:10:43;;;;;;;6.55;1.67;;;;;;;8.99;100.00;99805.03;5080648;28;20016;-62
2023/10/30 07:13:09;;;;;;;6.82;1.88;;;;;;;8.98;100.00;99800.69;5078847;28;20036;-61
2023/10/30 07:15:34;;;;;;;9.38;2.10;;;;;;;9.00;100.00;99802.50;5066556;28;20024;-63
2023/10/30 07:18:00;;;;;;;10.07;2.28;;;;;;;9.00;100.00;99809.34;5073033;28;20545;-63
2023/10/30 07:20:25;;;;;;;7.25;2.03;;;;;;;9.03;100.00;99808.56;5070153;28;20017;-61
2023/10/30 07:22:50;;;;;;;11.90;2.25;;;;;;;9.05;100.00;99807.75;5079769;28;20020;-62
2023/10/30 07:25:16;;;;;;;6.30;2.10;;;;;;;9.05;100.00;99801.72;5058612;28;20028;-62
2023/10/30 07:27:41;;;;;;;9.77;1.77;;;;;;;9.05;100.00;99800.00;5061035;28;20024;-62
2023/10/30 07:30:08;;;;;;;7.97;1.63;;;;;;;9.05;100.00;99810.34;5088882;28;20053;-63
2023/10/30 07:32:34;;;;;;;8.55;2.05;;;;;;;9.06;100.00;99818.97;5088954;28;20020;-63
2023/10/30 07:34:59;;;;;;;7.20;1.85;;;;;;;9.05;100.00;99818.09;5060022;28;20437;-63
2023/10/30 07:37:25;;;;;;;11.52;1.98;;;;;;;9.07;100.00;99823.28;5047332;28;20021;-62
2023/10/30 07:39:50;;;;;;;9.65;2.10;;;;;;;9.10;100.00;99818.19;5047517;28;20484;-62
2023/10/30 07:42:15;;;;;;;9.15;2.08;;;;;;;9.15;100.00;99828.63;5054634;28;20059;-62
2023/10/30 07:44:40;;;;;;;8.43;1.88;;;;;;;9.20;100.00;99837.34;5054249;28;20039;-63
2023/10/30 07:47:06;;;;;;;10.85;2.40;;;;;;;9.24;100.00;99841.75;5048968;28;20182;-62
2023/10/30 07:49:31;;;;;;;6.88;1.50;;;;;;;9.28;100.00;99828.06;5049220;28;20453;-63
2023/10/30 07:51:56;;;;;;;6.32;1.83;;;;;;;9.34;100.00;99829.88;5048140;28;20047;-62
2023/10/30 07:54:22;;;;;;;7.53;1.85;;;;;;;9.38;100.00;99821.34;5049145;28;20017;-61
2023/10/30 07:56:47;;;;;;;11.85;1.85;;;;;;;9.43;100.00;99824.03;5055935;28;20555;-61
2023/10/30 07:59:13;;;;;;;11.77;2.28;;;;;;;9.47;100.00;99820.69;5054897;28;20025;-62
2023/10/30 08:01:39;;;;;;;12.82;2.25;;;;;;;9.52;100.00;99825.94;5057639;28;20048;-62
2023/10/30 08:04:06;;;;;;;10.85;2.45;;;;;;;9.57;100.00;99834.69;5047390;28;20060;-62
2023/10/30 08:06:32;;;;;;;7.95;2.22;;;;;;;9.60;100.00;99821.81;5084926;28;20070;-63
2023/10/30 08:08:57;;;;;;;9.07;1.90;;;;;;;9.64;100.00;99828.78;5084427;28;20551;-62
2023/10/30 08:11:23;;;;;;;5.05;1.67;;;;;;;9.68;100.00;99830.56;5085657;28;20030;-62
2023/10/30 08:13:49;;;;;;;10.73;1.80;;;;;;;9.74;100.00;99840.16;5085277;28;20020;-62
2023/10/30 08:16:14;;;;;;;8.77;1.85;;;;;;;9.79;100.00;99843.72;5087535;28;20171;-62
2023/10/30 08:18:39;;;;;;;9.43;2.00;;;;;;;9.84;100.00;99836.91;5087358;28;20055;-62
2023/10/30 08:21:06;;;;;;;11.65;1.92;;;;;;;9.92;100.00;99838.78;5087380;28;20032;-61
2023/10/30 08:23:32;;;;;;;11.50;2.13;;;;;;;9.98;100.00;99838.91;5075915;28;20037;-61
2023/10/30 08:25:57;;;;;;;6.15;1.75;;;;;;;10.05;100.00;99834.69;5085703;28;20464;-62
2023/10/30 08:28:22;;;;;;;9.35;1.80;;;;;;;10.15;100.00;99839.19;5087330;28;20452;-62
2023/10/30 08:30:48;;;;;;;11.05;1.73;;;;;;;10.24;100.00;99840.19;5086953;28;20024;-62
2023/10/30 08:33:13;;;;;;;7.88;1.85;;;;;;;10.31;100.00;99848.09;5087987;28;20778;-62
2023/10/30 08:35:39;;;;;;;8.23;1.80;;;;;;;10.40;100.00;99846.50;5087118;28;20016;-61
2023/10/30 08:38:04;;;;;;;9.73;1.77;;;;;;;10.44;100.00;99862.13;5087587;28;20032;-62
2023/10/30 08:40:29;;;;;;;9.48;1.83;;;;;;;10.51;100.00;99852.78;5087022;28;20031;-62
2023/10/30 08:42:55;;;;;;;6.15;2.33;;;;;;;10.59;100.00;99855.50;5086288;28;20064;-62
2023/10/30 08:45:22;;;;;;;11.35;2.40;;;;;;;10.66;100.00;99848.69;5085804;28;20047;-62
2023/10/30 08:47:47;;;;;;;8.20;1.95;;;;;;;10.68;100.00;99849.59;5086656;28;20443;-63
2023/10/30 08:50:13;;;;;;;7.50;1.98;;;;;;;10.74;100.00;99841.91;5087098;28;20074;-62
2023/10/30 08:52:39;;;;;;;12.13;2.58;;;;;;;10.79;100.00;99848.03;5085826;28;20038;-63
2023/10/30 08:55:05;;;;;;;5.35;1.60;;;;;;;10.84;100.00;99848.13;5061559;28;20024;-62
2023/10/30 08:57:30;;;;;;;8.45;2.08;;;;;;;10.88;100.00;99844.69;5085446;28;20030;-63
2023/10/30 08:59:55;;;;;;;9.45;2.05;;;;;;;10.92;100.00;99846.50;5087750;28;20101;-62
2023/10/30 09:02:20;;;;;;;6.68;2.03;;;;;;;10.95;100.00;99845.69;5085567;28;20036;-63
2023/10/30 09:04:46;;;;;;;6.55;2.00;;;;;;;10.96;100.00;99837.03;5087502;28;20228;-62
2023/10/30 09:07:11;;;;;;;11.13;1.90;;;;;;;11.01;100.00;99844.91;5086050;28;20034;-62
2023/10/30 09:09:37;;;;;;;5.93;1.50;;;;;;;11.02;100.00;99844.94;5086956;28;20027;-63
2023/10/30 09:12:02;;;;;;;6.68;1.55;;;;;;;11.07;100.00;99854.47;5086455;28;20034;-62
2023/10/30 09:14:27;;;;;;;10.88;1.65;;;;;;;11.10;100.00;99864.91;5085972;28;20043;-62
2023/10/30 09:16:53;;;;;;;5.95;1.73;;;;;;;11.12;100.00;99850.22;5086060;28;20110;-63
2023/10/30 09:19:18;;;;;;;11.18;1.77;;;;;;;11.12;100.00;99858.00;5072548;28;20392;-63
2023/10/30 09:21:43;;;;;;;9.27;1.95;;;;;;;11.13;100.00;99839.88;5080261;28;20060;-62
2023/10/30 09:24:09;;;;;;;8.98;1.83;;;;;;;11.18;100.00;99842.53;5071761;28;20029;-62
2023/10/30 09:26:34;;;;;;;6.88;1.70;;;;;;;11.22;100.00;99843.44;5086266;28;20024;-62
2023/10/30 09:28:59;;;;;;;6.82;1.30;;;;;;;11.23;100.00;99840.88;5086526;28;20028;-62
2023/10/30 09:31:24;;;;;;;7.85;1.23;;;;;;;11.25;100.00;99839.19;5086797;28;20024;-62
2023/10/30 09:33:50;;;;;;;5.00;1.58;;;;;;;11.27;100.00;99834.88;5085645;28;20024;-62
2023/10/30 09:36:15;;;;;;;7.30;1.30;;;;;;;11.29;100.00;99838.38;5087506;28;20372;-62
2023/10/30 09:38:43;;;;;;;6.80;1.75;;;;;;;11.34;100.00;99832.34;5089519;28;20024;-62
2023/10/30 09:41:11;;;;;;;7.15;1.85;;;;;;;11.36;100.00;99841.03;5089015;28;20113;-62
2023/10/30 09:43:38;;;;;;;7.50;1.58;;;;;;;11.37;100.00;99840.19;5081305;28;20434;-62
2023/10/30 09:46:07;;;;;;;10.07;1.73;;;;;;;11.36;100.00;99835.84;5069280;28;20036;-62
2023/10/30 09:48:32;;;;;;;8.40;1.60;;;;;;;11.37;100.00;99835.00;5087902;28;20016;-61
2023/10/30 09:50:59;;;;;;;8.32;1.83;;;;;;;11.39;100.00;99841.06;5086166;28;20055;-63
2023/10/30 09:53:25;;;;;;;5.95;1.40;;;;;;;11.40;100.00;99827.25;5063787;28;20034;-62
2023/10/30 09:55:54;;;;;;;4.30;1.20;;;;;;;11.41;100.00;99831.59;5066856;28;20025;-62
2023/10/30 09:58:21;;;;;;;8.27;2.03;;;;;;;11.44;100.00;99822.97;5069917;28;20035;-62
2023/10/30 10:00:46;;;;;;;4.32;1.00;;;;;;;11.46;100.00;99819.53;5066394;28;20025;-62
2023/10/30 10:03:12;;;;;;;7.53;1.67;;;;;;;11.47;100.00;99818.69;5067680;28;20028;-62
2023/10/30 10:05:37;;;;;;;7.32;1.20;;;;;;;11.50;100.00;99803.16;5060643;28;20067;-61
2023/10/30 10:08:04;;;;;;;5.20;1.40;;;;;;;11.52;100.00;99803.19;5069801;28;20025;-62
2023/10/30 10:11:01;;;;;;;7.38;1.38;;;;;;;11.55;100.00;99794.56;5069905;28;20357;-62
2023/10/30 10:13:29;;;;;;;5.53;1.30;;;;;;;11.60;100.00;99804.13;5057053;28;20376;-62
2023/10/30 10:15:55;;;;;;;4.93;1.85;;;;;;;11.64;100.00;99797.25;5063647;28;20055;-62
2023/10/30 10:18:31;;;;;;;7.03;1.20;;;;;;;11.68;100.00;99801.63;5056672;28;20469;-63
2023/10/30 10:20:59;;;;;;;6.22;1.40;;;;;;;11.70;100.00;99799.91;5070127;28;20055;-62
2023/10/30 10:23:25;;;;;;;6.40;1.20;;;;;;;11.72;100.00;99803.41;5078218;28;20492;-63
2023/10/30 10:25:58;;;;;;;5.95;1.50;;;;;;;11.74;100.00;99804.31;5060929;28;20024;-62
2023/10/30 10:28:25;;;;;;;6.32;1.20;;;;;;;11.77;100.00;99801.72;5090137;28;20016;-63
2023/10/30 10:30:54;;;;;;;4.75;1.45;;;;;;;11.81;100.00;99807.81;5089043;28;20034;-63
2023/10/30 10:33:24;;;;;;;3.92;1.08;;;;;;;11.84;100.00;99804.38;5088270;28;20028;-62
2023/10/30 10:35:54;;;;;;;4.88;1.15;;;;;;;11.88;100.00;99803.56;5089213;28;20085;-62
2023/10/30 10:38:21;;;;;;;6.60;1.63;;;;;;;11.89;100.00;99800.97;5087496;28;20256;-62
2023/10/30 10:40:47;;;;;;;5.72;1.33;;;;;;;11.93;100.00;99801.88;5089859;28;20028;-62
2023/10/30 10:43:19;;;;;;;6.30;1.42;;;;;;;11.97;100.00;99793.28;5087455;28;20048;-62
2023/10/30 10:45:49;;;;;;;5.80;1.50;;;;;;;11.99;100.00;99796.75;5078979;28;20042;-62
2023/10/30 10:48:16;;;;;;;10.38;1.70;;;;;;;12.01;100.00;99800.25;5084344;28;20023;-61
2023/10/30 10:50:41;;;;;;;6.20;1.45;;;;;;;12.04;100.00;99801.09;5088422;28;20032;-62
2023/10/30 10:53:08;;;;;;;6.18;1.13;;;;;;;12.06;100.00;99796.78;5073927;28;20532;-62
2023/10/30 10:55:48;;;;;;;6.43;1.52;;;;;;;12.11;100.00;99789.94;5087992;28;20043;-62
2023/10/30 10:58:16;;;;;;;3.75;1.20;;;;;;;12.14;100.00;99792.59;5086513;28;20053;-62
2023/10/30 11:00:52;;;;;;;5.38;0.95;;;;;;;12.18;100.00;99791.75;5083399;28;20138;-62
2023/10/30 11:03:18;;;;;;;5.15;0.85;;;;;;;12.23;100.00;99795.25;5084032;28;20031;-62
2023/10/30 11:05:47;;;;;;;2.38;1.23;;;;;;;12.25;100.00;99790.94;5075225;28;20404;-63
2023/10/30 11:08:39;;;;;;;6.85;1.20;;;;;;;12.27;100.00;99790.09;5051089;28;20448;-62
2023/10/30 11:11:11;;;;;;;4.18;1.00;;;;;;;12.29;100.00;99788.38;5063769;28;20021;-61
2023/10/30 11:13:42;;;;;;;;;;;;;;;12.27;100.00;99780.56;5052102;28;20388;-63
2023/10/30 11:16:40;;;;;;;3.60;0.93;;;;;;;12.29;100.00;99777.97;5064726;28;19909;-62
2023/10/30 11:19:06;;;;;;;7.93;0.90;;;;;;;12.28;100.00;99778.84;5062568;28;20412;-62
2023/10/30 11:21:32;;;;;;;5.75;1.08;;;;;;;12.28;100.00;99773.66;5077249;28;20044;-62
2023/10/30 11:23:59;;;;;;;3.80;0.98;;;;;;;12.27;100.00;99769.31;5064334;28;20021;-63